createdAt,value
2023-02-09T00:00:45.062Z,64.5
2023-02-09T00:06:34.912Z,64.6
2023-02-09T00:12:24.557Z,64.3
2023-02-09T00:18:13.750Z,66.3
2023-02-09T00:24:03.696Z,65.7
2023-02-09T00:29:53.289Z,66.2
2023-02-09T00:35:43.078Z,66.7
2023-02-09T00:41:32.927Z,66.6
2023-02-09T00:47:22.692Z,67.2
2023-02-09T00:53:12.766Z,67.2
2023-02-09T00:59:01.607Z,67.1
2023-02-09T01:04:51.590Z,67.3
2023-02-09T01:10:44.132Z,67.8
2023-02-09T01:16:34.732Z,68.4
2023-02-09T01:22:25.506Z,69.1
2023-02-09T01:28:15.717Z,69.3
2023-02-09T01:34:06.618Z,69.6
2023-02-09T01:39:56.223Z,69.9
2023-02-09T01:45:46.859Z,69.9
2023-02-09T01:51:39.089Z,69.7
2023-02-09T01:57:30.420Z,69.9
2023-02-09T02:03:20.675Z,69.2
2023-02-09T02:09:10.634Z,69.9
2023-02-09T02:15:00.982Z,69.9
2023-02-09T02:20:53.510Z,70.2
2023-02-09T02:26:43.933Z,70.1
2023-02-09T02:32:33.533Z,70.2
2023-02-09T02:38:24.404Z,71.1
2023-02-09T02:44:15.455Z,71
2023-02-09T02:50:08.031Z,72.2
2023-02-09T02:55:57.511Z,71.9
2023-02-09T03:01:47.765Z,72.3
2023-02-09T03:07:39.556Z,72.3
2023-02-09T03:13:30.191Z,73.1
2023-02-09T03:19:19.966Z,73.2
2023-02-09T03:25:09.921Z,73.7
2023-02-09T03:31:02.443Z,73.7
2023-02-09T03:36:54.707Z,73.7
2023-02-09T03:42:45.436Z,73.9
2023-02-09T03:48:35.703Z,74.5
2023-02-09T03:54:26.355Z,74.1
2023-02-09T04:00:17.318Z,74
2023-02-09T04:06:09.318Z,74.1
2023-02-09T04:11:59.398Z,73.7
2023-02-09T04:17:52.527Z,74.4
2023-02-09T04:23:42.217Z,75.6
2023-02-09T04:29:34.130Z,75.3
2023-02-09T04:35:23.772Z,76.2
2023-02-09T04:41:13.780Z,76.3
2023-02-09T04:47:03.326Z,76.7
2023-02-09T04:52:54.456Z,77.2
2023-02-09T04:58:45.584Z,76.6
2023-02-09T05:04:35.569Z,76.7
2023-02-09T05:10:27.554Z,77.3
2023-02-09T05:16:22.756Z,77.6
2023-02-09T05:22:13.260Z,78.4
2023-02-09T05:28:03.495Z,79.2
2023-02-09T05:33:56.199Z,78.7
2023-02-09T05:39:46.397Z,78.4
2023-02-09T05:45:37.949Z,79.1
2023-02-09T05:51:28.220Z,79.2
2023-02-09T05:57:18.305Z,78.9
2023-02-09T06:03:09.353Z,79.3
2023-02-09T06:09:00.211Z,79.1
2023-02-09T06:14:52.738Z,78.8
2023-02-09T06:20:43.342Z,79
2023-02-09T06:26:35.908Z,78.9
2023-02-09T06:32:26.483Z,79
2023-02-09T06:38:17.395Z,78.7
2023-02-09T06:44:08.185Z,79.5
2023-02-09T06:49:58.314Z,79.7
2023-02-09T06:55:49.355Z,79.9
2023-02-09T07:01:39.825Z,79.8
2023-02-09T07:07:30.570Z,80.7
2023-02-09T07:13:22.293Z,80.5
2023-02-09T07:19:12.824Z,81.2
2023-02-09T07:25:02.864Z,80.7
2023-02-09T07:30:54.621Z,81
2023-02-09T07:36:48.435Z,80.6
2023-02-09T07:42:38.765Z,79.9
2023-02-09T07:48:29.508Z,79.7
2023-02-09T07:54:19.738Z,79.3
2023-02-09T08:00:10.388Z,79.3
2023-02-09T08:06:01.400Z,79
2023-02-09T08:11:52.250Z,78.9
2023-02-09T08:17:43.074Z,78.1
2023-02-09T08:23:33.640Z,77.5
2023-02-09T08:29:26.824Z,76.9
2023-02-09T08:35:17.558Z,76.7
2023-02-09T08:41:08.438Z,76.8
2023-02-09T08:46:59.669Z,76.2
2023-02-09T08:52:52.395Z,76.1
2023-02-09T08:58:42.795Z,75.8
2023-02-09T09:04:33.294Z,75.7
2023-02-09T09:10:24.178Z,75.3
2023-02-09T09:16:15.111Z,75.2
2023-02-09T09:22:04.272Z,74.3
2023-02-09T09:27:54.753Z,74.1
2023-02-09T09:33:44.998Z,73.3
2023-02-09T09:39:35.727Z,72.8
2023-02-09T09:45:26.558Z,72.3
2023-02-09T09:51:16.729Z,71.5
2023-02-09T09:57:06.016Z,71.5
2023-02-09T10:02:56.150Z,70.5
2023-02-09T10:08:47.100Z,70.5
2023-02-09T10:14:38.691Z,69.8
2023-02-09T10:20:33.515Z,68.6
2023-02-09T10:26:23.450Z,67.7
2023-02-09T10:32:14.199Z,68.2
2023-02-09T10:38:04.242Z,66.4
2023-02-09T10:43:55.804Z,66.1
2023-02-09T10:49:47.637Z,66.3
2023-02-09T10:55:40.499Z,65.4
2023-02-09T11:01:31.336Z,65
2023-02-09T11:07:21.796Z,65.2
2023-02-09T11:13:13.036Z,65.2
2023-02-09T11:19:05.912Z,64.8
2023-02-09T11:24:59.496Z,63.3
2023-02-09T11:30:51.344Z,63
2023-02-09T11:36:43.991Z,63.6
2023-02-09T11:42:34.825Z,61.9
2023-02-09T11:48:25.880Z,61.8
2023-02-09T11:54:16.083Z,61.5
2023-02-09T12:00:06.886Z,60.9
2023-02-09T12:05:57.777Z,59.3
2023-02-09T12:11:48.758Z,59.6
2023-02-09T12:17:39.582Z,58.3
2023-02-09T12:23:31.400Z,57.8
2023-02-09T12:29:21.952Z,55
2023-02-09T12:35:12.251Z,55
2023-02-09T12:41:02.713Z,54.9
2023-02-09T12:46:53.592Z,54.2
2023-02-09T12:52:43.387Z,53.2
2023-02-09T12:58:33.825Z,53
2023-02-09T13:04:24.000Z,52.8
2023-02-09T13:10:14.484Z,52.9
2023-02-09T13:16:06.343Z,52
2023-02-09T13:21:58.530Z,52.5
2023-02-09T13:27:49.082Z,50.9
2023-02-09T13:33:41.191Z,51
2023-02-09T13:39:31.358Z,49.9
2023-02-09T13:45:22.865Z,50.7
2023-02-09T13:51:15.332Z,50.8
2023-02-09T13:57:06.234Z,49.6
2023-02-09T14:02:56.269Z,49.8
2023-02-09T14:08:48.338Z,49.5
2023-02-09T14:14:40.050Z,49.5
2023-02-09T14:20:30.340Z,50
2023-02-09T14:26:20.652Z,49.8
2023-02-09T14:32:11.235Z,48.9
2023-02-09T14:38:19.043Z,47.6
2023-02-09T14:44:09.995Z,48.6
2023-02-09T14:50:01.449Z,51.2
2023-02-09T14:57:00.706Z,51.7
2023-02-09T15:02:50.614Z,52
2023-02-09T15:08:41.631Z,51.6
2023-02-09T15:14:32.968Z,51.6
2023-02-09T15:20:24.104Z,50.3
2023-02-09T15:26:14.807Z,50.2
2023-02-09T15:32:05.361Z,49.5
2023-02-09T15:37:56.492Z,50.4
2023-02-09T15:43:46.799Z,51.6
2023-02-09T15:49:36.769Z,53.8
2023-02-09T15:55:27.343Z,55.8
2023-02-09T16:01:17.163Z,57.3
2023-02-09T16:07:08.516Z,58.6
2023-02-09T16:12:58.906Z,59.8
2023-02-09T16:18:47.635Z,60.7
2023-02-09T16:24:37.751Z,62
2023-02-09T16:30:28.175Z,62.7
2023-02-09T16:36:19.025Z,62.8
2023-02-09T16:42:09.200Z,64
2023-02-09T16:48:01.033Z,64.5
2023-02-09T16:53:50.784Z,65.7
2023-02-09T16:59:41.088Z,67.2
2023-02-09T17:05:32.190Z,68.7
2023-02-09T17:11:22.985Z,68.5
2023-02-09T17:17:13.197Z,70.3
2023-02-09T17:23:06.349Z,70.5
2023-02-09T17:28:56.828Z,71.3
2023-02-09T17:34:47.141Z,70.9
2023-02-09T17:40:39.056Z,71.5
2023-02-09T17:46:29.555Z,72.4
2023-02-09T17:52:20.001Z,72.6
2023-02-09T17:58:10.452Z,73.6
2023-02-09T18:04:00.853Z,74.2
2023-02-09T18:09:51.439Z,75.1
2023-02-09T18:15:39.243Z,76.7
2023-02-09T18:21:29.596Z,75.7
2023-02-09T18:27:19.469Z,76.4
2023-02-09T18:33:10.636Z,77.1
2023-02-09T18:39:02.133Z,77.6
2023-02-09T18:44:52.684Z,77.4
2023-02-09T18:50:43.220Z,77.7
2023-02-09T18:56:33.128Z,78.3
2023-02-09T19:02:22.355Z,78.8
2023-02-09T19:08:13.312Z,77.8
2023-02-09T19:14:03.798Z,78.6
2023-02-09T19:19:54.345Z,78.1
2023-02-09T19:25:44.014Z,78.7
2023-02-09T19:31:35.441Z,79.5
2023-02-09T19:37:26.007Z,80.6
2023-02-09T19:43:14.965Z,79.8
2023-02-09T19:49:07.677Z,79.4
2023-02-09T19:54:59.543Z,79
2023-02-09T20:00:49.662Z,80.3
2023-02-09T20:06:39.885Z,79.6
2023-02-09T20:12:28.814Z,80.4
2023-02-09T20:18:21.015Z,80
2023-02-09T20:24:10.718Z,80.4
2023-02-09T20:29:59.991Z,80.5
2023-02-09T20:35:48.984Z,81
2023-02-09T20:41:41.670Z,81.7
2023-02-09T20:47:31.765Z,81.8
2023-02-09T20:53:21.989Z,80.3
2023-02-09T20:59:12.068Z,81.9
2023-02-09T21:05:02.989Z,81.8
2023-02-09T21:10:54.092Z,82.6
2023-02-09T21:16:44.646Z,84
2023-02-09T21:22:35.838Z,82.8
2023-02-09T21:28:26.058Z,84.2
2023-02-09T21:34:17.248Z,85
2023-02-09T21:40:07.142Z,84.6
2023-02-09T21:45:58.511Z,83.9
2023-02-09T21:51:48.534Z,84.4
2023-02-09T21:57:38.563Z,83.1
2023-02-09T22:03:29.259Z,83.5
2023-02-09T22:09:20.698Z,84.1
2023-02-09T22:15:12.072Z,85.3
2023-02-09T22:21:02.142Z,84.3
2023-02-09T22:26:52.342Z,85.1
2023-02-09T22:32:41.106Z,85.2
2023-02-09T22:38:31.079Z,85.9
2023-02-09T22:44:21.139Z,87
2023-02-09T22:50:14.243Z,87
2023-02-09T22:56:04.468Z,86.2
2023-02-09T23:03:07.442Z,86.4
2023-02-09T23:08:54.122Z,85.6
2023-02-09T23:14:43.461Z,86.2
2023-02-09T23:20:33.454Z,86.6
2023-02-09T23:26:22.913Z,86.1
2023-02-09T23:32:11.654Z,86.4
2023-02-09T23:38:00.805Z,86.7
2023-02-09T23:43:51.469Z,88.6
2023-02-09T23:49:43.485Z,88
2023-02-09T23:55:34.673Z,88.9
